Time;durP1;ratioP1;P1;durP2;ratioP2;P2;SDS_P1;SDS_P2;PMS_P1;PMS_P2;Temp;Humidity;BMP_temperature;BMP_pressure;BME280_temperature;BME280_humidity;BME280_pressure;Samples;Min_cycle;Max_cycle;Signal;HPM_P1;HPM_P2
2023/02/13 00:02:00;;;;;;;53.13;20.88;;;6.40;99.90;;;;;;4990183;28;20271;-73
2023/02/13 00:04:26;;;;;;;56.30;20.67;;;6.40;99.90;;;;;;4992730;28;20038;-73
2023/02/13 00:06:51;;;;;;;49.83;19.52;;;6.40;99.90;;;;;;4988982;28;20069;-74
2023/02/13 00:09:17;;;;;;;61.42;20.65;;;6.40;99.90;;;;;;4985565;28;20038;-73
2023/02/13 00:11:42;;;;;;;52.72;19.75;;;6.30;99.90;;;;;;4986256;28;20137;-73
2023/02/13 00:14:07;;;;;;;53.42;19.33;;;6.30;99.90;;;;;;4977164;28;20490;-73
2023/02/13 00:16:33;;;;;;;55.72;20.02;;;6.30;99.90;;;;;;4986499;28;20181;-73
2023/02/13 00:18:58;;;;;;;52.85;19.88;;;6.30;99.90;;;;;;4989869;28;20030;-74
2023/02/13 00:21:24;;;;;;;54.05;19.15;;;6.30;99.90;;;;;;4987092;28;20038;-73
2023/02/13 00:23:49;;;;;;;49.47;18.83;;;6.30;99.90;;;;;;4989558;28;20064;-73
2023/02/13 00:26:16;;;;;;;49.72;18.92;;;6.30;99.90;;;;;;4987259;28;20022;-73
2023/02/13 00:28:42;;;;;;;45.47;18.23;;;6.30;99.90;;;;;;4985869;28;20039;-73
2023/02/13 00:31:11;;;;;;;49.30;17.88;;;6.30;99.90;;;;;;4984030;28;20026;-73
2023/02/13 00:33:38;;;;;;;53.03;18.35;;;6.30;99.90;;;;;;4999033;28;20036;-73
2023/02/13 00:36:06;;;;;;;40.80;17.73;;;6.20;99.90;;;;;;4989427;28;20886;-74
2023/02/13 00:38:32;;;;;;;43.17;16.88;;;6.20;99.90;;;;;;4993260;28;20475;-74
2023/02/13 00:40:57;;;;;;;44.42;18.65;;;6.30;99.90;;;;;;4986975;28;20080;-74
2023/02/13 00:43:23;;;;;;;43.63;18.05;;;6.20;99.90;;;;;;4987947;28;20113;-75
2023/02/13 00:45:48;;;;;;;50.75;17.70;;;6.30;99.90;;;;;;4984375;28;20038;-74
2023/02/13 00:48:14;;;;;;;44.55;16.63;;;6.20;99.90;;;;;;4986118;28;20054;-73
2023/02/13 00:50:39;;;;;;;42.13;17.70;;;6.20;99.90;;;;;;4987379;28;20033;-74
2023/02/13 00:53:04;;;;;;;44.47;17.33;;;6.20;99.90;;;;;;4987504;28;20034;-73
2023/02/13 00:55:30;;;;;;;44.55;17.23;;;6.30;99.90;;;;;;4988512;28;20434;-73
2023/02/13 00:57:55;;;;;;;38.90;17.23;;;6.20;99.90;;;;;;4989388;28;20100;-73
2023/02/13 01:00:21;;;;;;;42.25;17.20;;;6.20;99.90;;;;;;4991231;28;20184;-74
2023/02/13 01:02:46;;;;;;;45.78;17.10;;;6.20;99.90;;;;;;4992636;28;20041;-74
2023/02/13 01:05:13;;;;;;;34.10;16.10;;;6.20;99.90;;;;;;4992922;28;20085;-74
2023/02/13 01:07:38;;;;;;;42.97;16.95;;;6.20;99.90;;;;;;4990465;28;20051;-74
2023/02/13 01:10:05;;;;;;;36.83;16.20;;;6.20;99.90;;;;;;4989813;28;20038;-75
2023/02/13 01:12:30;;;;;;;37.38;16.65;;;6.20;99.90;;;;;;4988805;28;20064;-74
2023/02/13 01:14:56;;;;;;;41.08;16.83;;;6.20;99.90;;;;;;4992147;28;20522;-73
2023/02/13 01:17:21;;;;;;;37.17;16.80;;;6.10;99.90;;;;;;4989725;28;20034;-75
2023/02/13 01:19:47;;;;;;;37.55;16.13;;;6.10;99.90;;;;;;4990065;28;20182;-73
2023/02/13 01:22:12;;;;;;;43.85;17.48;;;6.10;99.90;;;;;;5003803;28;20066;-74
2023/02/13 01:24:38;;;;;;;39.00;15.93;;;6.10;99.90;;;;;;4990674;28;20085;-73
2023/02/13 01:27:03;;;;;;;38.70;17.23;;;6.10;99.90;;;;;;4987762;28;20100;-74
2023/02/13 01:29:29;;;;;;;39.63;15.93;;;6.10;99.90;;;;;;4996458;28;20534;-73
2023/02/13 01:31:54;;;;;;;37.58;16.73;;;6.10;99.90;;;;;;4989660;28;20081;-75
2023/02/13 01:34:20;;;;;;;36.17;15.35;;;6.10;99.90;;;;;;4991090;28;20070;-74
2023/02/13 01:36:45;;;;;;;34.17;16.52;;;6.10;99.90;;;;;;4989889;28;20096;-73
2023/02/13 01:39:11;;;;;;;36.05;16.88;;;6.10;99.90;;;;;;4991978;28;20034;-74
2023/02/13 01:41:37;;;;;;;35.20;15.95;;;6.10;99.90;;;;;;4990084;28;20109;-74
2023/02/13 01:44:23;;;;;;;35.05;15.98;;;6.00;99.90;;;;;;4990263;28;20447;-74
2023/02/13 01:46:48;;;;;;;36.45;15.52;;;6.00;99.90;;;;;;4990110;28;20100;-73
2023/02/13 01:49:22;;;;;;;34.88;15.20;;;6.00;99.90;;;;;;4990581;28;20038;-74
2023/02/13 01:51:51;;;;;;;38.08;15.20;;;6.00;99.90;;;;;;4988227;28;20563;-74
2023/02/13 01:54:21;;;;;;;41.53;16.00;;;6.00;99.90;;;;;;4983030;28;20066;-74
2023/02/13 01:56:54;;;;;;;39.10;15.53;;;5.90;99.90;;;;;;4988661;28;20038;-73
2023/02/13 01:59:25;;;;;;;29.98;14.35;;;5.90;99.90;;;;;;4991229;28;20037;-74
2023/02/13 02:01:52;;;;;;;35.80;14.95;;;5.90;99.90;;;;;;4992645;28;20038;-73
2023/02/13 02:04:32;;;;;;;33.33;14.50;;;5.90;99.90;;;;;;4993989;28;20030;-73
2023/02/13 02:07:11;;;;;;;38.15;15.60;;;5.90;99.90;;;;;;4992315;28;20092;-73
2023/02/13 02:09:38;;;;;;;38.08;14.70;;;5.90;99.90;;;;;;4989489;28;20035;-74
2023/02/13 02:12:10;;;;;;;42.47;16.13;;;5.80;99.90;;;;;;4990826;28;20027;-74
2023/02/13 02:14:36;;;;;;;36.63;14.95;;;5.80;99.90;;;;;;4989926;28;20023;-73
2023/02/13 02:17:02;;;;;;;39.20;15.93;;;5.80;99.90;;;;;;4989079;28;20030;-74
2023/02/13 02:19:59;;;;;;;37.45;16.48;;;5.80;99.90;;;;;;4992852;28;20076;-73
2023/02/13 02:23:03;;;;;;;34.97;14.82;;;5.80;99.90;;;;;;4990940;28;20074;-73
2023/02/13 02:26:10;;;;;;;36.85;15.10;;;5.80;99.90;;;;;;4962642;28;20050;-73
2023/02/13 02:28:54;;;;;;;31.13;14.23;;;5.80;99.90;;;;;;4990306;28;20129;-73
2023/02/13 02:31:48;;;;;;;38.90;15.35;;;5.80;99.90;;;;;;4987058;28;20438;-73
2023/02/13 02:34:45;;;;;;;38.63;14.48;;;5.70;99.90;;;;;;4986595;28;20537;-75
2023/02/13 02:37:36;;;;;;;29.95;14.85;;;5.70;99.90;;;;;;4995953;28;20084;-74
2023/02/13 02:40:40;;;;;;;38.78;15.27;;;5.70;99.90;;;;;;4988316;28;20027;-73
2023/02/13 02:43:23;;;;;;;31.85;14.48;;;5.70;99.90;;;;;;4985894;28;20105;-73
2023/02/13 02:46:01;;;;;;;31.45;14.50;;;5.70;99.90;;;;;;4988494;28;20057;-73
2023/02/13 02:51:44;;;;;;;36.78;14.60;;;5.70;99.90;;;;;;4985164;28;20041;-73
2023/02/13 02:57:25;;;;;;;32.72;14.35;;;5.70;99.90;;;;;;4986228;28;20088;-74
2023/02/13 03:08:11;;;;;;;38.63;15.52;;;5.70;99.90;;;;;;4988156;28;20549;-73
2023/02/13 03:13:46;;;;;;;41.63;16.00;;;5.60;99.90;;;;;;4990281;28;20465;-74
2023/02/13 03:25:04;;;;;;;41.42;17.48;;;5.60;99.90;;;;;;4986818;28;20554;-74
2023/02/13 03:30:53;;;;;;;34.70;15.40;;;5.60;99.90;;;;;;4989567;28;20105;-74
2023/02/13 03:33:48;;;;;;;30.38;15.18;;;5.60;99.90;;;;;;4990606;28;20037;-73
2023/02/13 03:39:34;;;;;;;37.72;16.00;;;5.60;99.90;;;;;;4987319;28;20100;-73
2023/02/13 03:42:06;;;;;;;33.72;16.13;;;5.60;99.90;;;;;;4983257;28;20018;-73
2023/02/13 03:44:40;;;;;;;40.42;16.33;;;5.60;99.90;;;;;;4984960;28;20097;-74
2023/02/13 03:47:08;;;;;;;36.17;16.85;;;5.60;99.90;;;;;;4983764;28;20101;-74
2023/02/13 03:52:31;;;;;;;41.25;15.82;;;5.60;99.90;;;;;;4986850;28;20037;-74
2023/02/13 04:01:06;;;;;;;44.67;17.13;;;5.60;99.90;;;;;;4982201;28;20033;-73
2023/02/13 04:03:49;;;;;;;39.72;16.98;;;5.60;99.90;;;;;;4989042;28;20053;-74
2023/02/13 04:06:19;;;;;;;42.58;17.35;;;5.60;99.90;;;;;;4986566;28;20388;-73
2023/02/13 04:08:44;;;;;;;42.58;17.60;;;5.60;99.90;;;;;;4989347;28;20126;-73
2023/02/13 04:11:40;;;;;;;38.80;17.95;;;5.60;99.90;;;;;;4985386;28;20034;-73
2023/02/13 04:14:16;;;;;;;39.42;16.13;;;5.60;99.90;;;;;;4988674;28;20085;-73
2023/02/13 04:16:48;;;;;;;41.25;17.00;;;5.60;99.90;;;;;;4985855;28;20117;-73
2023/02/13 04:19:14;;;;;;;46.53;17.00;;;5.50;99.90;;;;;;4987943;28;20395;-73
2023/02/13 04:21:40;;;;;;;38.67;16.70;;;5.50;99.90;;;;;;4987995;28;20442;-74
2023/02/13 04:24:06;;;;;;;38.53;17.23;;;5.50;99.90;;;;;;4986003;28;20058;-73
2023/02/13 04:26:42;;;;;;;46.97;15.50;;;5.50;99.90;;;;;;4985773;28;20121;-73
2023/02/13 04:29:08;;;;;;;38.38;15.95;;;5.50;99.90;;;;;;4988719;28;20480;-73
2023/02/13 04:31:34;;;;;;;41.17;16.95;;;5.50;99.90;;;;;;4985704;28;21365;-73
2023/02/13 04:34:00;;;;;;;43.60;18.00;;;5.50;99.90;;;;;;4992978;28;20030;-75
2023/02/13 04:36:25;;;;;;;44.53;17.58;;;5.50;99.90;;;;;;4993492;28;20037;-73
2023/02/13 04:38:51;;;;;;;56.60;18.30;;;5.50;99.90;;;;;;4990229;28;20030;-74
2023/02/13 04:41:16;;;;;;;37.08;16.52;;;5.50;99.90;;;;;;4993170;28;20026;-73
2023/02/13 04:43:42;;;;;;;39.20;16.05;;;5.50;99.90;;;;;;4990251;28;20040;-73
2023/02/13 04:46:07;;;;;;;39.92;16.67;;;5.50;99.90;;;;;;4991515;28;20121;-73
2023/02/13 04:48:33;;;;;;;38.95;16.40;;;5.50;99.90;;;;;;4990259;28;20501;-73
2023/02/13 04:50:58;;;;;;;41.90;15.75;;;5.50;99.90;;;;;;4992738;28;20044;-75
2023/02/13 04:53:24;;;;;;;35.67;16.60;;;5.50;99.90;;;;;;4993270;28;20030;-74
2023/02/13 04:55:51;;;;;;;42.53;16.35;;;5.50;99.90;;;;;;4993374;28;20034;-73
2023/02/13 04:58:16;;;;;;;44.03;15.05;;;5.50;99.90;;;;;;4988687;28;20038;-74
2023/02/13 05:00:42;;;;;;;45.72;14.75;;;5.40;99.90;;;;;;4991967;28;20044;-74
2023/02/13 05:03:10;;;;;;;40.15;14.93;;;5.40;99.90;;;;;;4991338;28;20530;-73
2023/02/13 05:05:36;;;;;;;36.70;15.02;;;5.40;99.90;;;;;;4991364;28;20049;-75
2023/02/13 05:08:02;;;;;;;34.97;15.27;;;5.40;99.90;;;;;;4993641;28;20030;-73
2023/02/13 05:10:28;;;;;;;36.78;16.23;;;5.40;99.90;;;;;;4992642;28;20372;-73
2023/02/13 05:12:54;;;;;;;41.97;15.73;;;5.50;99.90;;;;;;4984527;28;20030;-73
2023/02/13 05:15:21;;;;;;;42.55;15.93;;;5.40;99.90;;;;;;4995083;28;20037;-73
2023/02/13 05:17:46;;;;;;;36.47;15.98;;;5.40;99.90;;;;;;4984524;28;20025;-73
2023/02/13 05:20:13;;;;;;;40.63;16.65;;;5.40;99.90;;;;;;4991731;28;20042;-73
2023/02/13 05:25:36;;;;;;;40.75;15.70;;;5.40;99.90;;;;;;4989439;28;20127;-73
2023/02/13 05:28:02;;;;;;;48.00;15.73;;;5.40;99.90;;;;;;4993688;28;20058;-74
2023/02/13 05:30:28;;;;;;;43.10;16.48;;;5.40;99.90;;;;;;4985175;28;20065;-68
2023/02/13 05:32:53;;;;;;;37.70;16.58;;;5.40;99.90;;;;;;4997458;28;20077;-66
2023/02/13 05:35:23;;;;;;;38.85;15.93;;;5.40;99.90;;;;;;4993088;28;20038;-67
2023/02/13 05:37:49;;;;;;;40.63;17.23;;;5.40;99.90;;;;;;4985911;28;20440;-67
2023/02/13 05:40:15;;;;;;;41.13;17.00;;;5.40;99.90;;;;;;4993307;28;20034;-67
2023/02/13 05:42:41;;;;;;;44.33;17.17;;;5.40;99.90;;;;;;4988538;28;20074;-66
2023/02/13 05:45:08;;;;;;;49.70;17.02;;;5.50;99.90;;;;;;4999374;28;20026;-67
2023/02/13 05:47:33;;;;;;;37.03;17.48;;;5.50;99.90;;;;;;4988977;28;20082;-67
2023/02/13 05:49:59;;;;;;;47.67;17.45;;;5.50;99.90;;;;;;4987382;28;20050;-67
2023/02/13 05:52:25;;;;;;;45.10;16.98;;;5.50;99.90;;;;;;4990672;28;20080;-67
2023/02/13 05:54:50;;;;;;;43.33;18.17;;;5.50;99.90;;;;;;4991283;28;20034;-67
2023/02/13 05:57:15;;;;;;;36.92;16.75;;;5.50;99.90;;;;;;4988343;28;20089;-68
2023/02/13 05:59:41;;;;;;;50.60;17.85;;;5.50;99.90;;;;;;4987356;28;20043;-68
2023/02/13 06:02:06;;;;;;;40.83;17.63;;;5.50;99.90;;;;;;4985280;28;20105;-66
2023/02/13 06:04:32;;;;;;;48.15;17.23;;;5.40;99.90;;;;;;4992036;28;20112;-66
2023/02/13 06:06:58;;;;;;;47.80;18.33;;;5.40;99.90;;;;;;4990348;28;20065;-66
2023/02/13 06:09:24;;;;;;;43.83;17.08;;;5.40;99.90;;;;;;4988613;28;20041;-66
2023/02/13 06:11:49;;;;;;;49.00;18.50;;;5.40;99.90;;;;;;4983480;28;20108;-67
2023/02/13 06:14:15;;;;;;;50.75;18.17;;;5.40;99.90;;;;;;5000374;28;20038;-67
2023/02/13 06:16:40;;;;;;;47.10;17.33;;;5.40;99.90;;;;;;5005140;28;20030;-67
2023/02/13 06:19:06;;;;;;;51.35;18.38;;;5.40;99.90;;;;;;4987343;28;20041;-66
2023/02/13 06:21:36;;;;;;;44.50;17.67;;;5.40;99.90;;;;;;4992487;28;20372;-67
2023/02/13 06:24:06;;;;;;;61.72;18.35;;;5.40;99.90;;;;;;4992170;28;20093;-67
2023/02/13 06:26:34;;;;;;;46.38;18.70;;;5.40;99.90;;;;;;4989584;28;20026;-67
2023/02/13 06:28:59;;;;;;;49.95;18.15;;;5.40;99.90;;;;;;4984427;28;20050;-66
2023/02/13 06:31:25;;;;;;;47.03;17.98;;;5.40;99.90;;;;;;5003483;28;20089;-66
2023/02/13 06:33:50;;;;;;;55.83;19.13;;;5.40;99.90;;;;;;4991701;28;20109;-67
2023/02/13 06:36:16;;;;;;;52.70;18.10;;;5.40;99.90;;;;;;4989222;28;20039;-66
2023/02/13 06:38:42;;;;;;;51.45;18.27;;;5.40;99.90;;;;;;4987984;28;20838;-67
2023/02/13 06:41:08;;;;;;;52.08;18.88;;;5.40;99.90;;;;;;4994334;28;20415;-67
2023/02/13 06:43:33;;;;;;;52.67;18.77;;;5.40;99.90;;;;;;4990924;28;20026;-66
2023/02/13 06:45:59;;;;;;;50.17;19.30;;;5.40;99.90;;;;;;4988753;28;20049;-68
2023/02/13 06:48:24;;;;;;;55.83;18.33;;;5.40;99.90;;;;;;4992476;28;20042;-66
2023/02/13 06:50:53;;;;;;;56.88;19.50;;;5.40;99.90;;;;;;4990660;28;20392;-67
2023/02/13 06:53:23;;;;;;;68.38;19.98;;;5.40;99.90;;;;;;4996242;28;20034;-66
2023/02/13 06:55:52;;;;;;;53.67;19.63;;;5.40;99.90;;;;;;4985929;28;20418;-68
2023/02/13 06:58:19;;;;;;;57.85;19.15;;;5.40;99.90;;;;;;4991127;28;20031;-67
2023/02/13 07:00:44;;;;;;;55.33;18.90;;;5.40;99.90;;;;;;4987810;28;20373;-67
2023/02/13 07:03:10;;;;;;;54.92;18.08;;;5.40;99.90;;;;;;5000423;28;20040;-68
2023/02/13 07:05:39;;;;;;;51.58;18.08;;;5.30;99.90;;;;;;4988508;28;20033;-68
2023/02/13 07:08:05;;;;;;;52.45;18.95;;;5.40;99.90;;;;;;4996756;28;20042;-67
2023/02/13 07:10:30;;;;;;;54.33;18.27;;;5.40;99.90;;;;;;5003273;28;20120;-67
2023/02/13 07:12:56;;;;;;;53.13;18.90;;;5.40;99.90;;;;;;4990003;28;20085;-66
2023/02/13 07:15:21;;;;;;;48.30;19.02;;;5.40;99.90;;;;;;4980055;28;20560;-68
2023/02/13 07:17:47;;;;;;;50.83;19.38;;;5.40;99.90;;;;;;4989911;28;20084;-67
2023/02/13 07:20:12;;;;;;;47.60;18.42;;;5.40;99.90;;;;;;4983569;28;20042;-67
2023/02/13 07:22:38;;;;;;;52.63;19.30;;;5.40;99.90;;;;;;4986847;28;20117;-66
2023/02/13 07:25:04;;;;;;;50.70;18.88;;;5.40;99.90;;;;;;4986251;28;20399;-67
2023/02/13 07:27:29;;;;;;;47.28;18.60;;;5.50;99.90;;;;;;4999389;28;20129;-67
2023/02/13 07:29:56;;;;;;;51.70;18.88;;;5.40;99.90;;;;;;4990509;28;20512;-66
2023/02/13 07:32:22;;;;;;;48.15;17.02;;;5.40;99.90;;;;;;4984826;28;20034;-67
2023/02/13 07:34:48;;;;;;;45.50;18.88;;;5.40;99.90;;;;;;4989721;28;20134;-66
2023/02/13 07:37:13;;;;;;;56.05;19.45;;;5.50;99.90;;;;;;4990956;28;20194;-69
2023/02/13 07:39:40;;;;;;;60.30;19.60;;;5.50;99.90;;;;;;4991093;28;20033;-67
2023/02/13 07:42:05;;;;;;;53.95;20.10;;;5.50;99.90;;;;;;4986951;28;20114;-67
2023/02/13 07:44:31;;;;;;;61.10;23.45;;;5.50;99.90;;;;;;4987028;28;20124;-68
2023/02/13 07:46:57;;;;;;;56.75;22.90;;;5.50;99.90;;;;;;4988175;28;20069;-67
2023/02/13 07:49:22;;;;;;;58.03;22.13;;;5.50;99.90;;;;;;4991316;28;20038;-66
2023/02/13 07:51:48;;;;;;;56.30;20.13;;;5.60;99.90;;;;;;4991126;28;20030;-66
2023/02/13 07:54:13;;;;;;;63.60;20.13;;;5.60;99.90;;;;;;4982875;28;20033;-66
2023/02/13 07:56:39;;;;;;;44.95;19.90;;;5.60;99.90;;;;;;4987434;28;20053;-66
2023/02/13 07:59:04;;;;;;;60.15;21.63;;;5.60;99.90;;;;;;4986153;28;20022;-67
2023/02/13 08:01:30;;;;;;;52.35;21.98;;;5.60;99.90;;;;;;4988558;28;20088;-66
2023/02/13 08:03:55;;;;;;;54.97;21.60;;;5.60;99.90;;;;;;4999130;28;20041;-66
2023/02/13 08:06:21;;;;;;;59.67;21.63;;;5.70;99.90;;;;;;5003640;28;20112;-66
2023/02/13 08:08:47;;;;;;;58.47;22.52;;;5.60;99.90;;;;;;4988099;28;20031;-69
2023/02/13 08:14:16;;;;;;;46.80;20.95;;;5.70;99.90;;;;;;4994495;28;20495;-66
2023/02/13 08:16:42;;;;;;;65.53;23.42;;;5.70;99.90;;;;;;4988667;28;20030;-66
2023/02/13 08:19:07;;;;;;;51.38;22.23;;;5.80;99.90;;;;;;4990623;28;20438;-66
2023/02/13 08:21:34;;;;;;;61.30;23.33;;;5.80;99.90;;;;;;4998436;28;20034;-67
2023/02/13 08:23:59;;;;;;;53.55;21.50;;;5.80;99.90;;;;;;4995334;28;20920;-67
2023/02/13 08:26:25;;;;;;;56.08;22.17;;;5.80;99.90;;;;;;4989193;28;20030;-66
2023/02/13 08:28:50;;;;;;;54.40;23.08;;;5.80;99.90;;;;;;4989401;28;20500;-66
2023/02/13 08:31:16;;;;;;;50.97;22.13;;;5.80;99.90;;;;;;4990093;28;20042;-66
2023/02/13 08:33:42;;;;;;;52.28;20.80;;;5.90;99.90;;;;;;4990342;28;20546;-66
2023/02/13 08:36:08;;;;;;;46.53;20.80;;;5.90;99.90;;;;;;4990965;28;20062;-66
2023/02/13 08:38:33;;;;;;;51.40;20.38;;;5.90;99.90;;;;;;4989853;28;20172;-67
2023/02/13 08:40:59;;;;;;;47.65;20.55;;;5.90;99.90;;;;;;4987573;28;20124;-68
2023/02/13 08:43:24;;;;;;;49.65;20.95;;;6.00;99.90;;;;;;4986417;28;20035;-67
2023/02/13 08:45:50;;;;;;;45.85;20.90;;;6.00;99.90;;;;;;4983778;28;20416;-66
2023/02/13 08:48:15;;;;;;;46.63;19.67;;;6.00;99.90;;;;;;4989945;28;20042;-67
2023/02/13 08:50:41;;;;;;;40.33;19.60;;;6.00;99.90;;;;;;4989903;28;20034;-68
2023/02/13 08:53:06;;;;;;;45.63;19.98;;;6.00;99.90;;;;;;4981504;28;20552;-67
2023/02/13 08:55:32;;;;;;;46.35;20.48;;;6.00;99.90;;;;;;4989075;28;20248;-66
2023/02/13 08:58:02;;;;;;;42.35;20.52;;;6.00;99.90;;;;;;4986735;28;20452;-67
2023/02/13 09:00:28;;;;;;;37.75;19.13;;;6.00;99.90;;;;;;4984829;28;20042;-67
2023/02/13 09:02:54;;;;;;;40.55;19.77;;;6.00;99.90;;;;;;4990670;28;20498;-67
2023/02/13 09:05:20;;;;;;;41.67;19.70;;;6.00;99.90;;;;;;4991125;28;20026;-66
2023/02/13 09:07:45;;;;;;;37.42;18.70;;;6.10;99.90;;;;;;4990015;28;20497;-66
2023/02/13 09:10:11;;;;;;;42.72;19.58;;;6.10;99.90;;;;;;4990987;28;20451;-68
2023/02/13 09:12:37;;;;;;;37.28;19.65;;;6.20;99.90;;;;;;4986120;28;20042;-67
2023/02/13 09:15:03;;;;;;;36.95;18.65;;;6.20;99.90;;;;;;4988837;28;20463;-67
2023/02/13 09:17:29;;;;;;;36.47;18.13;;;6.20;99.90;;;;;;4989894;28;20031;-68
2023/02/13 09:19:54;;;;;;;38.67;19.15;;;6.10;99.90;;;;;;4993754;28;20081;-67
2023/02/13 09:22:20;;;;;;;35.53;18.20;;;6.20;99.90;;;;;;5005239;28;20176;-67
2023/02/13 09:24:45;;;;;;;40.10;19.80;;;6.30;99.90;;;;;;5005036;28;20066;-66
2023/02/13 09:27:11;;;;;;;52.90;25.42;;;6.20;99.90;;;;;;4989269;28;20105;-67
2023/02/13 09:29:36;;;;;;;38.00;19.65;;;6.30;99.90;;;;;;4990247;28;20472;-68
2023/02/13 09:32:04;;;;;;;39.83;20.35;;;6.20;99.90;;;;;;4990253;28;20050;-67
2023/02/13 09:34:29;;;;;;;63.33;29.38;;;6.30;99.90;;;;;;4992754;28;20034;-66
2023/02/13 09:36:55;;;;;;;43.58;21.67;;;6.40;99.90;;;;;;4989525;28;20042;-66
2023/02/13 09:39:20;;;;;;;42.33;20.42;;;6.30;99.90;;;;;;4990680;28;20395;-66
2023/02/13 09:41:49;;;;;;;42.70;20.15;;;6.40;99.90;;;;;;4992080;28;20039;-66
2023/02/13 09:44:34;;;;;;;37.95;20.27;;;6.30;99.90;;;;;;4989321;28;20058;-66
2023/02/13 09:47:16;;;;;;;39.00;20.40;;;6.40;99.90;;;;;;4987702;28;20026;-66
2023/02/13 09:49:55;;;;;;;37.78;19.70;;;6.40;99.90;;;;;;4989892;28;20036;-66
2023/02/13 09:52:21;;;;;;;35.00;19.88;;;6.50;99.90;;;;;;4988013;28;20460;-68
2023/02/13 09:54:46;;;;;;;41.35;19.23;;;6.60;99.90;;;;;;4991877;28;20060;-66
2023/02/13 09:57:33;;;;;;;36.67;19.60;;;6.60;99.90;;;;;;4990196;28;20068;-67
2023/02/13 10:00:12;;;;;;;32.95;17.23;;;6.60;99.90;;;;;;4990819;28;20411;-67
2023/02/13 10:03:10;;;;;;;40.53;19.65;;;6.60;99.90;;;;;;4994341;28;20045;-66
2023/02/13 10:05:56;;;;;;;38.63;19.45;;;6.50;99.90;;;;;;4988362;28;20348;-69
2023/02/13 10:08:36;;;;;;;39.63;19.10;;;6.60;99.90;;;;;;4985080;28;20383;-67
2023/02/13 10:11:24;;;;;;;38.83;18.47;;;6.70;99.90;;;;;;4982003;28;20043;-66
2023/02/13 10:14:22;;;;;;;32.88;17.15;;;6.70;99.90;;;;;;4989822;28;20301;-67
2023/02/13 10:16:53;;;;;;;36.90;18.73;;;6.60;99.90;;;;;;4992325;28;20054;-67
2023/02/13 10:19:40;;;;;;;33.97;18.50;;;6.60;99.90;;;;;;4989724;28;20207;-66
2023/02/13 10:22:22;;;;;;;34.85;17.30;;;6.70;99.90;;;;;;4992185;28;20030;-68
2023/02/13 10:25:03;;;;;;;35.25;18.58;;;6.70;99.90;;;;;;4989999;28;20483;-66
2023/02/13 10:27:44;;;;;;;33.30;18.45;;;6.80;99.90;;;;;;4979198;28;20126;-67
2023/02/13 10:30:27;;;;;;;31.55;17.38;;;6.90;99.90;;;;;;4984833;28;20077;-68
2023/02/13 10:33:18;;;;;;;33.42;17.88;;;6.80;99.90;;;;;;4986986;28;20431;-66
2023/02/13 10:36:10;;;;;;;37.33;18.13;;;6.90;99.90;;;;;;4985030;28;20034;-67
2023/02/13 10:39:28;;;;;;;32.20;17.73;;;6.90;99.90;;;;;;4993928;28;20088;-66
2023/02/13 10:42:06;;;;;;;27.90;16.25;;;7.00;99.90;;;;;;4983989;28;20057;-66
2023/02/13 10:44:50;;;;;;;34.92;18.08;;;7.00;99.90;;;;;;4987615;28;20041;-66
2023/02/13 10:47:45;;;;;;;30.45;17.60;;;7.00;99.90;;;;;;4987017;28;20026;-67
2023/02/13 10:50:21;;;;;;;26.63;15.85;;;7.10;99.90;;;;;;4989793;28;20456;-66
2023/02/13 10:52:51;;;;;;;28.77;17.17;;;7.20;99.90;;;;;;4982397;28;20666;-66
2023/02/13 10:55:50;;;;;;;33.22;17.92;;;7.20;99.80;;;;;;4985144;28;20028;-67
2023/02/13 10:58:48;;;;;;;29.05;17.02;;;7.20;99.60;;;;;;4971709;28;20160;-68
2023/02/13 11:01:29;;;;;;;30.35;16.50;;;7.20;99.60;;;;;;4969744;28;20122;-66
2023/02/13 11:04:11;;;;;;;26.92;16.38;;;7.20;99.20;;;;;;4981245;28;20483;-67
2023/02/13 11:06:42;;;;;;;29.60;16.92;;;7.30;99.10;;;;;;4993439;28;20195;-66
2023/02/13 11:09:08;;;;;;;26.20;16.13;;;7.30;98.80;;;;;;4987694;28;20046;-67
2023/02/13 11:11:39;;;;;;;27.33;16.67;;;7.30;98.50;;;;;;4981805;28;20046;-67
2023/02/13 11:14:14;;;;;;;29.95;17.00;;;7.30;98.30;;;;;;4984925;28;20026;-67
2023/02/13 11:17:02;;;;;;;27.20;16.98;;;7.10;97.80;;;;;;4987324;28;20509;-66
2023/02/13 11:19:35;;;;;;;33.20;16.98;;;7.30;98.00;;;;;;4984409;28;20085;-68
2023/02/13 11:22:04;;;;;;;27.88;15.85;;;7.40;97.90;;;;;;4980590;28;20029;-69
2023/02/13 11:24:31;;;;;;;26.05;16.83;;;7.30;97.80;;;;;;4986793;28;20034;-67
2023/02/13 11:27:07;;;;;;;32.45;17.58;;;7.30;97.60;;;;;;4992422;28;20057;-70
2023/02/13 11:29:35;;;;;;;34.25;18.10;;;7.30;97.60;;;;;;4985982;28;20046;-67
2023/02/13 11:32:04;;;;;;;33.80;17.88;;;7.50;97.90;;;;;;4982885;28;20386;-67
2023/02/13 11:34:32;;;;;;;27.90;17.27;;;7.30;97.50;;;;;;4975335;28;20034;-68
2023/02/13 11:37:24;;;;;;;30.63;17.55;;;7.40;97.60;;;;;;4981248;28;20062;-62
2023/02/13 11:39:53;;;;;;;30.35;16.35;;;7.50;97.70;;;;;;4979021;28;20054;-68
2023/02/13 11:42:29;;;;;;;29.08;18.38;;;7.30;97.50;;;;;;4978248;28;20049;-69
2023/02/13 11:45:04;;;;;;;29.63;16.88;;;7.40;97.40;;;;;;4984922;28;20121;-68
2023/02/13 11:47:41;;;;;;;27.85;16.63;;;7.40;97.40;;;;;;4975364;28;20121;-68
2023/02/13 11:50:27;;;;;;;25.35;16.38;;;7.30;97.20;;;;;;4987938;28;20034;-68
2023/02/13 11:53:01;;;;;;;28.48;17.42;;;7.30;97.00;;;;;;4977681;28;20041;-70
2023/02/13 11:55:33;;;;;;;31.17;17.33;;;7.30;97.10;;;;;;4983415;28;20053;-67
2023/02/13 11:58:19;;;;;;;28.33;18.17;;;7.30;97.10;;;;;;4976654;28;20030;-68
2023/02/13 12:00:45;;;;;;;27.70;17.20;;;7.30;97.10;;;;;;4985123;28;20052;-67
2023/02/13 12:03:20;;;;;;;28.42;16.77;;;7.40;97.10;;;;;;4984448;28;20038;-67
2023/02/13 12:06:07;;;;;;;29.10;15.88;;;7.50;96.90;;;;;;4982480;28;20082;-68
2023/02/13 12:08:35;;;;;;;25.60;16.13;;;7.40;96.20;;;;;;4985426;28;20054;-68
2023/02/13 12:11:11;;;;;;;24.95;14.88;;;7.30;94.90;;;;;;4983714;28;20041;-69
2023/02/13 12:13:38;;;;;;;23.15;15.35;;;7.40;95.40;;;;;;4980344;28;20679;-67
2023/02/13 12:16:33;;;;;;;24.80;15.52;;;7.50;95.80;;;;;;4977712;28;20042;-70
2023/02/13 12:19:02;;;;;;;30.02;15.93;;;7.50;95.60;;;;;;4980678;28;20049;-68
2023/02/13 12:22:01;;;;;;;28.45;14.77;;;7.50;95.90;;;;;;4989889;28;20093;-67
2023/02/13 12:24:48;;;;;;;27.73;15.18;;;7.50;95.40;;;;;;4974677;28;20030;-68
2023/02/13 12:27:41;;;;;;;26.10;15.18;;;7.50;95.60;;;;;;4979512;28;20097;-68
2023/02/13 12:30:26;;;;;;;26.08;15.75;;;7.50;95.40;;;;;;4976856;28;20043;-68
2023/02/13 12:33:09;;;;;;;26.20;16.33;;;7.40;95.10;;;;;;4983197;28;20022;-68
2023/02/13 12:35:44;;;;;;;26.73;14.75;;;7.50;95.50;;;;;;4981628;28;20352;-67
2023/02/13 12:38:49;;;;;;;26.15;15.30;;;7.50;95.00;;;;;;4989394;28;20383;-68
2023/02/13 12:41:26;;;;;;;25.95;15.48;;;7.60;95.20;;;;;;4980619;28;20061;-67
2023/02/13 12:44:00;;;;;;;26.38;15.50;;;7.60;95.40;;;;;;4983258;28;20030;-67
2023/02/13 12:46:53;;;;;;;28.63;17.05;;;7.60;95.50;;;;;;4983639;28;20125;-68
2023/02/13 12:49:47;;;;;;;29.95;16.10;;;7.50;95.50;;;;;;4974452;28;20474;-68
2023/02/13 12:52:31;;;;;;;28.45;17.08;;;7.60;95.40;;;;;;4978896;28;20034;-69
2023/02/13 12:55:24;;;;;;;33.03;18.20;;;7.60;95.50;;;;;;4986505;28;20054;-69
2023/02/13 12:58:00;;;;;;;32.00;17.50;;;7.50;95.30;;;;;;4987275;28;20402;-69
2023/02/13 13:00:39;;;;;;;31.48;18.45;;;7.50;95.10;;;;;;4993271;28;20042;-69
2023/02/13 13:03:34;;;;;;;31.00;17.40;;;7.50;94.80;;;;;;4987290;28;20109;-69
2023/02/13 13:06:41;;;;;;;27.95;17.02;;;7.40;94.90;;;;;;4979026;28;20053;-69
2023/02/13 13:09:34;;;;;;;27.65;16.27;;;7.50;95.30;;;;;;4961036;28;20541;-69
2023/02/13 13:12:30;;;;;;;27.60;15.88;;;7.50;95.10;;;;;;4989514;28;20057;-69
2023/02/13 13:15:20;;;;;;;28.20;17.15;;;7.50;95.10;;;;;;4983962;28;20037;-70
2023/02/13 13:18:02;;;;;;;29.23;16.70;;;7.50;95.40;;;;;;4989245;28;20097;-68
2023/02/13 13:20:36;;;;;;;28.52;17.10;;;7.50;95.50;;;;;;4990846;28;20029;-68
2023/02/13 13:23:06;;;;;;;28.00;17.65;;;7.50;95.60;;;;;;4982067;28;20435;-68
2023/02/13 13:25:51;;;;;;;31.33;19.03;;;7.50;95.70;;;;;;4990796;28;20042;-69
2023/02/13 13:28:24;;;;;;;33.80;19.30;;;7.50;95.80;;;;;;4978721;28;20301;-69
2023/02/13 13:30:52;;;;;;;33.38;19.27;;;7.50;95.50;;;;;;4986847;28;20030;-69
2023/02/13 13:33:20;;;;;;;33.70;20.05;;;7.40;95.20;;;;;;4994336;28;20058;-69
2023/02/13 13:36:09;;;;;;;34.35;18.60;;;7.50;95.60;;;;;;4989055;28;20030;-69
2023/02/13 13:38:55;;;;;;;32.83;18.25;;;7.50;95.50;;;;;;4989965;28;20045;-69
2023/02/13 13:41:46;;;;;;;31.40;18.33;;;7.50;95.90;;;;;;4985923;28;20475;-69
2023/02/13 13:44:29;;;;;;;33.47;19.10;;;7.50;95.80;;;;;;4986680;28;20042;-70
2023/02/13 13:47:01;;;;;;;34.83;19.45;;;7.50;95.70;;;;;;4981774;28;20505;-67
2023/02/13 13:49:50;;;;;;;34.90;19.95;;;7.50;95.60;;;;;;4987438;28;20046;-67